Time;durP1;ratioP1;P1;durP2;ratioP2;P2;SDS_P1;SDS_P2;PMS_P1;PMS_P2;Temp;Humidity;BMP_temperature;BMP_pressure;BME280_temperature;BME280_humidity;BME280_pressure;Samples;Min_cycle;Max_cycle;Signal;HPM_P1;HPM_P2
2024/04/12 00:02:09;;;;;;;2.67;1.35;;;;;;;10.06;100.00;99357.66;5413613;26;20699;-80
2024/04/12 00:04:37;;;;;;;7.18;1.73;;;;;;;10.27;100.00;99332.25;5407763;26;20018;-80
2024/04/12 00:07:13;;;;;;;3.80;1.67;;;;;;;10.33;100.00;99341.19;5392694;26;20016;-79
2024/04/12 00:09:52;;;;;;;7.05;1.50;;;;;;;10.20;100.00;99341.72;5412435;26;20000;-80
2024/04/12 00:12:26;;;;;;;7.82;1.58;;;;;;;10.07;100.00;99344.94;5414276;26;20012;-82
2024/04/12 00:15:02;;;;;;;4.32;1.70;;;;;;;10.00;100.00;99337.09;5421000;26;20049;-81
2024/04/12 00:17:31;;;;;;;5.30;1.65;;;;;;;9.94;100.00;99336.28;5409983;26;20015;-82
2024/04/12 00:20:00;;;;;;;4.70;1.45;;;;;;;10.10;100.00;99342.50;5404017;26;20329;-82
2024/04/12 00:22:29;;;;;;;6.95;1.50;;;;;;;9.82;100.00;99337.59;5406004;26;20005;-81
2024/04/12 00:24:59;;;;;;;5.55;1.30;;;;;;;9.84;100.00;99346.25;5414073;26;20011;-81
2024/04/12 00:27:33;;;;;;;3.25;1.40;;;;;;;9.98;100.00;99331.97;5402892;26;20008;-81
2024/04/12 00:30:03;;;;;;;5.70;1.73;;;;;;;9.87;100.00;99332.22;5398056;26;19999;-81
2024/04/12 00:32:35;;;;;;;4.65;1.60;;;;;;;9.87;100.00;99319.50;5413166;26;20008;-80
2024/04/12 00:35:06;;;;;;;2.35;1.40;;;;;;;10.15;100.00;99325.47;5405275;26;20415;-81
2024/04/12 00:37:33;;;;;;;5.97;1.58;;;;;;;10.21;100.00;99319.00;5426522;26;20019;-81
2024/04/12 00:40:00;;;;;;;3.42;1.50;;;;;;;10.41;100.00;99319.81;5385942;26;20000;-82
2024/04/12 00:42:31;;;;;;;5.43;1.38;;;;;;;10.30;100.00;99322.78;5397454;26;20014;-82
2024/04/12 00:45:02;;;;;;;4.85;1.38;;;;;;;10.25;100.00;99325.47;5385478;26;20019;-82
2024/04/12 00:47:31;;;;;;;3.60;1.25;;;;;;;10.29;100.00;99313.03;5417914;26;20017;-80
2024/04/12 00:50:03;;;;;;;2.92;1.50;;;;;;;10.20;100.00;99299.22;5385979;26;20333;-81
2024/04/12 00:52:33;;;;;;;4.57;1.15;;;;;;;10.08;100.00;99300.56;5406872;26;20022;-80
2024/04/12 00:55:09;;;;;;;7.75;1.58;;;;;;;9.91;100.00;99298.94;5392446;26;20053;-80
2024/04/12 00:57:40;;;;;;;2.83;1.27;;;;;;;9.88;100.00;99304.88;5398815;26;20461;-81
2024/04/12 01:00:12;;;;;;;4.30;1.42;;;;;;;9.89;100.00;99316.50;5409189;26;20032;-82
2024/04/12 01:02:47;;;;;;;6.68;1.55;;;;;;;9.98;100.00;99320.31;5398523;26;20057;-80
2024/04/12 01:05:19;;;;;;;4.35;1.58;;;;;;;10.17;100.00;99315.22;5392478;26;20340;-81
2024/04/12 01:07:55;;;;;;;3.78;1.48;;;;;;;10.16;100.00;99306.28;5413749;26;20007;-81
2024/04/12 01:10:24;;;;;;;5.05;1.45;;;;;;;10.26;100.00;99297.34;5398362;26;19999;-80
2024/04/12 01:13:02;;;;;;;2.33;1.33;;;;;;;10.43;100.00;99300.56;5385186;26;20000;-83
2024/04/12 01:15:32;;;;;;;6.50;1.50;;;;;;;10.39;100.00;99289.47;5409113;26;19996;-82
2024/04/12 01:18:10;;;;;;;3.58;1.33;;;;;;;10.45;100.00;99290.28;5412140;26;20440;-82
2024/04/12 01:20:39;;;;;;;2.75;1.33;;;;;;;10.18;100.00;99276.22;5398203;26;20044;-83
2024/04/12 01:23:07;;;;;;;4.63;1.70;;;;;;;10.31;100.00;99286.50;5408272;26;20345;-81
2024/04/12 01:25:34;;;;;;;7.53;1.60;;;;;;;10.14;100.00;99284.09;5407380;26;20031;-80
2024/04/12 01:28:04;;;;;;;3.92;1.30;;;;;;;9.90;100.00;99285.69;5403183;26;20076;-82
2024/04/12 01:30:34;;;;;;;3.83;1.30;;;;;;;10.11;100.00;99279.19;5403409;26;19999;-81
2024/04/12 01:33:01;;;;;;;3.13;1.35;;;;;;;9.94;100.00;99273.22;5408796;26;20208;-80
2024/04/12 01:35:33;;;;;;;5.07;1.40;;;;;;;10.13;100.00;99270.81;5411593;26;20007;-80
2024/04/12 01:38:16;;;;;;;4.13;1.40;;;;;;;10.30;100.00;99264.03;5407183;26;20080;-80
2024/04/12 01:40:56;;;;;;;4.32;1.48;;;;;;;10.41;100.00;99281.91;5395908;26;20011;-80
2024/04/12 01:43:26;;;;;;;3.50;1.50;;;;;;;10.21;100.00;99281.09;5404294;26;20022;-80
2024/04/12 01:45:54;;;;;;;3.28;1.60;;;;;;;10.33;100.00;99292.47;5406001;26;20076;-81
2024/04/12 01:48:28;;;;;;;2.47;1.40;;;;;;;10.35;100.00;99288.38;5395715;26;20023;-80
2024/04/12 01:50:55;;;;;;;4.50;1.50;;;;;;;10.16;100.00;99292.75;5405595;26;20053;-81
2024/04/12 01:53:22;;;;;;;4.18;1.25;;;;;;;10.32;100.00;99296.25;5410768;26;20003;-81
2024/04/12 01:55:50;;;;;;;3.92;1.60;;;;;;;10.22;100.00;99290.88;5387977;26;19999;-80
2024/04/12 01:58:21;;;;;;;4.68;1.40;;;;;;;10.24;100.00;99289.50;5408948;26;20456;-81
2024/04/12 02:00:49;;;;;;;5.20;1.40;;;;;;;10.30;100.00;99290.28;5398480;26;20015;-80
2024/04/12 02:03:17;;;;;;;5.50;1.20;;;;;;;10.31;100.00;99286.50;5388933;26;20059;-80
2024/04/12 02:05:48;;;;;;;5.13;1.55;;;;;;;10.38;100.00;99287.84;5401831;26;20012;-78
2024/04/12 02:08:19;;;;;;;3.00;1.30;;;;;;;10.31;100.00;99286.50;5395674;26;20410;-78
2024/04/12 02:10:48;;;;;;;6.90;1.70;;;;;;;10.36;100.00;99281.91;5399402;26;19995;-78
2024/04/12 02:13:17;;;;;;;3.83;1.48;;;;;;;10.25;100.00;99272.16;5407853;26;20011;-79
2024/04/12 02:15:53;;;;;;;4.70;1.40;;;;;;;10.43;100.00;99278.91;5397303;26;20491;-80
2024/04/12 02:18:22;;;;;;;3.47;1.38;;;;;;;10.17;100.00;99271.91;5407540;26;20019;-80
2024/04/12 02:20:51;;;;;;;5.22;1.20;;;;;;;10.10;100.00;99274.03;5389703;26;20008;-78
2024/04/12 02:23:20;;;;;;;3.88;1.35;;;;;;;10.11;100.00;99281.09;5375016;26;20008;-82
2024/04/12 02:25:49;;;;;;;3.72;1.35;;;;;;;10.16;100.00;99268.41;5356118;26;20012;-80
2024/04/12 02:28:18;;;;;;;3.75;1.30;;;;;;;10.28;100.00;99265.38;5368142;26;20340;-81
2024/04/12 02:30:57;;;;;;;4.78;1.50;;;;;;;10.34;100.00;99273.25;5375379;26;20008;-79
2024/04/12 02:33:27;;;;;;;2.65;1.27;;;;;;;10.37;100.00;99269.19;5356898;26;20013;-79
2024/04/12 02:35:59;;;;;;;3.92;1.30;;;;;;;10.42;100.00;99277.28;5409927;26;20003;-80
2024/04/12 02:38:28;;;;;;;3.78;1.52;;;;;;;10.45;100.00;99271.34;5404808;26;20007;-78
2024/04/12 02:40:59;;;;;;;6.15;1.75;;;;;;;10.46;100.00;99272.94;5407396;26;20344;-78
2024/04/12 02:43:29;;;;;;;5.03;1.30;;;;;;;10.40;100.00;99258.59;5396760;26;20022;-76
2024/04/12 02:46:00;;;;;;;4.70;1.75;;;;;;;10.45;100.00;99268.63;5404313;26;20077;-80
2024/04/12 02:48:32;;;;;;;8.48;1.77;;;;;;;10.45;100.00;99265.94;5402122;26;20172;-81
2024/04/12 02:51:03;;;;;;;2.90;1.60;;;;;;;10.47;100.00;99269.16;5410203;26;20057;-79
2024/04/12 02:53:31;;;;;;;6.32;1.67;;;;;;;10.36;100.00;99264.84;5399951;26;20089;-80
2024/04/12 02:56:03;;;;;;;5.55;1.75;;;;;;;10.29;100.00;99262.44;5382607;26;20031;-82
2024/04/12 02:58:44;;;;;;;4.55;1.83;;;;;;;10.29;100.00;99250.78;5400974;26;20106;-81
2024/04/12 03:01:17;;;;;;;8.52;2.05;;;;;;;10.24;100.00;99259.72;5404334;26;20375;-80
2024/04/12 03:03:47;;;;;;;3.75;2.00;;;;;;;10.22;100.00;99259.16;5406272;26;20039;-81
2024/04/12 03:06:22;;;;;;;6.25;2.10;;;;;;;10.36;100.00;99270.25;5401937;26;20027;-80
2024/04/12 03:08:52;;;;;;;4.15;1.77;;;;;;;10.35;100.00;99255.13;5400394;26;20060;-79
2024/04/12 03:11:25;;;;;;;5.13;2.03;;;;;;;10.36;100.00;99262.13;5392568;26;20004;-81
2024/04/12 03:13:58;;;;;;;7.88;2.22;;;;;;;10.27;100.00;99258.38;5408151;26;20332;-77
2024/04/12 03:16:26;;;;;;;4.85;2.00;;;;;;;10.27;100.00;99264.56;5407860;26;19999;-80
2024/04/12 03:18:53;;;;;;;4.22;1.63;;;;;;;10.28;100.00;99277.03;5407294;26;20015;-78
2024/04/12 03:21:22;;;;;;;4.13;1.80;;;;;;;9.96;100.00;99273.78;5403249;26;20003;-83
2024/04/12 03:23:50;;;;;;;3.55;1.67;;;;;;;10.03;100.00;99275.16;5404129;26;20035;-80
2024/04/12 03:26:19;;;;;;;4.43;1.60;;;;;;;9.88;100.00;99280.53;5398887;26;20483;-81
2024/04/12 03:28:46;;;;;;;3.90;1.20;;;;;;;9.90;100.00;99277.56;5411603;26;20013;-81
2024/04/12 03:31:13;;;;;;;4.65;1.40;;;;;;;9.87;100.00;99287.03;5394256;26;20006;-80
2024/04/12 03:33:44;;;;;;;5.85;1.52;;;;;;;10.06;100.00;99289.22;5395225;26;20433;-81
2024/04/12 03:41:57;;;;;;;4.38;1.80;;;;;;;10.08;100.00;99285.16;5402703;26;20340;-81
2024/04/12 03:44:34;;;;;;;6.85;1.55;;;;;;;9.99;100.00;99289.47;5402884;26;20011;-82
2024/04/12 03:47:10;;;;;;;5.07;1.60;;;;;;;9.87;100.00;99284.31;5396552;26;19997;-82
2024/04/12 03:49:41;;;;;;;3.83;1.25;;;;;;;9.97;100.00;99284.34;5394712;26;20008;-82
2024/04/12 03:52:12;;;;;;;4.57;1.33;;;;;;;9.90;100.00;99275.69;5404930;26;20054;-82
2024/04/12 03:54:43;;;;;;;4.45;1.70;;;;;;;9.98;100.00;99279.72;5384861;26;20008;-83
2024/04/12 03:57:10;;;;;;;4.88;1.60;;;;;;;10.03;100.00;99264.31;5394563;26;19995;-80
2024/04/12 03:59:38;;;;;;;7.22;1.63;;;;;;;10.07;100.00;99269.16;5400180;26;20086;-82
2024/04/12 04:02:08;;;;;;;3.25;1.60;;;;;;;10.02;100.00;99264.56;5398294;26;20099;-81
2024/04/12 04:04:47;;;;;;;5.72;1.52;;;;;;;9.99;100.00;99262.41;5390464;26;20257;-82
2024/04/12 04:07:16;;;;;;;3.42;1.40;;;;;;;10.05;100.00;99264.03;5392062;26;20084;-83
2024/04/12 04:09:46;;;;;;;3.42;1.40;;;;;;;10.02;100.00;99268.09;5389126;26;20076;-81
2024/04/12 04:12:16;;;;;;;3.67;1.50;;;;;;;9.98;100.00;99266.22;5430030;26;20026;-82
2024/04/12 04:14:49;;;;;;;10.68;1.88;;;;;;;10.04;100.00;99271.34;5392447;26;20054;-82
2024/04/12 04:17:28;;;;;;;3.85;1.77;;;;;;;9.99;100.00;99262.41;5395122;26;20014;-80
2024/04/12 04:20:05;;;;;;;4.55;1.70;;;;;;;9.86;100.00;99257.53;5395693;26;20008;-79
2024/04/12 04:25:08;;;;;;;5.93;1.80;;;;;;;9.77;100.00;99254.56;5393120;26;20007;-81
2024/04/12 04:27:37;;;;;;;3.63;1.80;;;;;;;9.87;100.00;99256.47;5396288;26;20008;-80
2024/04/12 04:30:05;;;;;;;5.90;1.83;;;;;;;9.75;100.00;99272.97;5400870;26;20000;-82
2024/04/12 04:32:33;;;;;;;4.10;1.50;;;;;;;9.60;100.00;99272.94;5393266;26;20016;-84
2024/04/12 04:35:08;;;;;;;4.70;1.95;;;;;;;9.35;100.00;99267.47;5396157;26;20023;-80
2024/04/12 04:37:39;;;;;;;2.83;1.73;;;;;;;9.43;100.00;99277.78;5398019;26;20007;-79
2024/04/12 04:40:17;;;;;;;3.10;1.90;;;;;;;9.23;100.00;99283.13;5398025;26;19996;-78
2024/04/12 04:42:49;;;;;;;4.90;1.90;;;;;;;9.39;100.00;99274.00;5401558;26;20034;-81
2024/04/12 04:45:18;;;;;;;5.18;1.90;;;;;;;9.58;100.00;99266.97;5408333;26;20492;-84
2024/04/12 04:47:47;;;;;;;4.78;1.95;;;;;;;9.77;100.00;99276.22;5395986;26;20504;-83
2024/04/12 04:50:18;;;;;;;3.78;1.83;;;;;;;9.94;100.00;99274.03;5396024;26;20067;-81
2024/04/12 04:52:46;;;;;;;5.40;1.90;;;;;;;9.92;100.00;99276.22;5407907;26;20018;-80
2024/04/12 04:55:13;;;;;;;4.95;1.80;;;;;;;9.98;100.00;99277.03;5398440;26;20441;-82
2024/04/12 04:57:44;;;;;;;5.50;1.70;;;;;;;10.03;100.00;99285.97;5391485;26;20062;-81
2024/04/12 05:00:18;;;;;;;6.32;2.00;;;;;;;10.12;100.00;99280.00;5411555;26;20009;-81
2024/04/12 05:02:50;;;;;;;5.13;1.90;;;;;;;10.26;100.00;99279.22;5395320;26;20404;-79
2024/04/12 05:05:26;;;;;;;4.90;2.22;;;;;;;10.41;100.00;99283.78;5404040;26;20015;-82
2024/04/12 05:07:57;;;;;;;4.28;1.77;;;;;;;10.51;100.00;99284.59;5404090;26;20086;-82
2024/04/12 05:10:33;;;;;;;5.80;2.10;;;;;;;10.54;100.00;99277.81;5405715;26;20003;-81
2024/04/12 05:13:03;;;;;;;5.15;1.77;;;;;;;11.06;100.00;99283.59;5403617;26;20007;-81
2024/04/12 05:15:49;;;;;;;4.82;2.03;;;;;;;11.23;100.00;99280.53;5406095;26;20008;-83
2024/04/12 05:18:16;;;;;;;7.38;1.80;;;;;;;11.29;100.00;99276.72;5410937;26;20015;-82
2024/04/12 05:20:47;;;;;;;8.10;2.60;;;;;;;11.31;100.00;99274.53;5412726;26;20024;-82
2024/04/12 05:23:17;;;;;;;8.68;2.33;;;;;;;11.41;100.00;99263.63;5387127;26;20031;-81
2024/04/12 05:25:49;;;;;;;5.32;2.20;;;;;;;11.41;100.00;99266.34;5410680;26;20039;-81
2024/04/12 05:28:19;;;;;;;6.32;2.40;;;;;;;11.48;100.00;99271.47;5390024;26;20016;-81
2024/04/12 05:30:50;;;;;;;6.65;2.35;;;;;;;11.56;100.00;99276.31;5401652;26;20421;-81
2024/04/12 05:33:19;;;;;;;7.95;2.40;;;;;;;11.64;100.00;99278.44;5382061;26;20081;-81
2024/04/12 05:35:51;;;;;;;8.07;2.38;;;;;;;11.76;100.00;99277.00;5400025;26;20030;-82
2024/04/12 05:38:21;;;;;;;7.28;2.47;;;;;;;11.75;100.00;99274.56;5402070;26;20026;-81
2024/04/12 05:40:53;;;;;;;5.68;2.30;;;;;;;11.87;100.00;99281.25;5396169;26;20004;-80
2024/04/12 05:43:22;;;;;;;10.15;2.42;;;;;;;11.93;100.00;99276.59;5387105;26;20444;-80
2024/04/12 05:45:51;;;;;;;8.57;2.97;;;;;;;11.96;100.00;99270.59;5389752;26;20484;-82
2024/04/12 05:48:21;;;;;;;9.50;2.78;;;;;;;12.02;100.00;99269.47;5402279;26;20000;-80
2024/04/12 05:50:58;;;;;;;5.82;2.80;;;;;;;12.08;100.00;99265.63;5406789;26;20342;-80
2024/04/12 05:53:30;;;;;;;5.53;2.50;;;;;;;12.23;100.00;99262.75;5393594;26;20398;-80
2024/04/12 05:58:50;;;;;;;8.30;2.95;;;;;;;12.46;100.00;99256.56;5390640;26;20468;-81
2024/04/12 06:01:20;;;;;;;7.00;2.53;;;;;;;12.52;100.00;99258.13;5386578;26;20387;-80
2024/04/12 06:03:53;;;;;;;6.85;2.50;;;;;;;12.59;100.00;99251.56;5387806;26;20417;-80
2024/04/12 06:06:22;;;;;;;7.53;2.20;;;;;;;12.59;100.00;99241.50;5404369;26;20435;-81
2024/04/12 06:08:52;;;;;;;9.30;2.40;;;;;;;12.66;100.00;99252.03;5410389;26;20012;-81
2024/04/12 06:11:21;;;;;;;6.72;2.20;;;;;;;12.73;100.00;99247.03;5403223;26;19995;-81
2024/04/12 06:13:53;;;;;;;6.32;2.20;;;;;;;12.76;100.00;99246.47;5394337;26;20023;-81
2024/04/12 06:16:22;;;;;;;6.88;2.80;;;;;;;12.88;100.00;99246.84;5402676;26;20573;-81
2024/04/12 06:18:50;;;;;;;9.00;2.50;;;;;;;12.90;100.00;99253.66;5397447;26;20019;-81
2024/04/12 06:21:18;;;;;;;8.48;2.42;;;;;;;12.97;100.00;99243.22;5402871;26;20018;-82
2024/04/12 06:23:49;;;;;;;4.53;2.20;;;;;;;13.11;100.00;99254.22;5409726;26;20517;-81
2024/04/12 06:26:16;;;;;;;8.02;2.22;;;;;;;13.21;100.00;99243.22;5395780;26;20030;-81
2024/04/12 06:28:44;;;;;;;5.80;1.88;;;;;;;13.43;100.00;99248.06;5398812;26;20007;-80
2024/04/12 06:31:19;;;;;;;9.65;2.13;;;;;;;13.62;100.00;99254.34;5395586;26;20016;-80
2024/04/12 06:33:49;;;;;;;;;;;;;;;13.80;100.00;99274.47;5394411;26;20076;-80
2024/04/12 06:36:17;;;;;;;6.95;2.08;;;;;;;13.93;100.00;99258.22;5386225;26;20558;-81
2024/04/12 06:38:44;;;;;;;4.88;1.90;;;;;;;14.09;100.00;99258.78;5400084;26;20020;-79
2024/04/12 06:41:14;;;;;;;6.70;1.80;;;;;;;14.27;100.00;99253.25;5389846;26;20366;-81
2024/04/12 06:43:45;;;;;;;5.50;1.80;;;;;;;14.35;100.00;99268.13;5388005;26;20386;-83
2024/04/12 06:46:13;;;;;;;5.43;1.98;;;;;;;14.55;100.00;99270.53;5402991;26;20003;-82
2024/04/12 06:48:44;;;;;;;3.53;1.90;;;;;;;14.76;100.00;99243.69;5407541;26;20018;-82
2024/04/12 06:51:11;;;;;;;5.93;2.10;;;;;;;14.88;100.00;99233.06;5383676;26;20023;-82
2024/04/12 06:53:48;;;;;;;4.78;1.70;;;;;;;14.98;100.00;99233.66;5387399;26;20395;-82
2024/04/12 06:56:17;;;;;;;7.38;1.77;;;;;;;15.06;100.00;99248.50;5393508;26;20413;-81
2024/04/12 06:58:48;;;;;;;9.30;1.95;;;;;;;15.11;100.00;99259.31;5407650;26;20007;-82
2024/04/12 07:01:21;;;;;;;5.65;1.65;;;;;;;15.21;100.00;99252.81;5420008;26;20038;-82
2024/04/12 07:03:56;;;;;;;7.20;1.73;;;;;;;15.38;100.00;99255.75;5400115;26;20004;-80
2024/04/12 07:06:25;;;;;;;4.25;1.60;;;;;;;15.44;100.00;99254.50;5393411;26;20017;-81
2024/04/12 07:08:52;;;;;;;4.45;1.70;;;;;;;15.48;100.00;99256.38;5404944;26;20027;-81
2024/04/12 07:11:21;;;;;;;4.60;1.75;;;;;;;15.57;100.00;99261.88;5410774;26;20458;-81
2024/04/12 07:13:53;;;;;;;6.22;1.90;;;;;;;15.62;97.70;99258.22;5404928;26;20023;-81
2024/04/12 07:16:21;;;;;;;5.80;1.80;;;;;;;15.75;96.59;99255.47;5389446;26;20085;-82
2024/04/12 07:18:50;;;;;;;7.22;1.70;;;;;;;15.94;94.41;99263.47;5395788;26;20030;-82
2024/04/12 07:21:22;;;;;;;5.22;1.35;;;;;;;16.16;90.10;99272.47;5405710;26;20191;-81
2024/04/12 07:23:50;;;;;;;6.53;1.40;;;;;;;16.35;91.65;99266.81;5402990;26;20004;-82
2024/04/12 07:26:24;;;;;;;5.72;1.20;;;;;;;16.13;77.67;99255.91;5398057;26;20424;-82
2024/04/12 07:29:02;;;;;;;5.88;1.30;;;;;;;16.18;75.25;99250.31;5397364;26;20015;-81
2024/04/12 07:31:31;;;;;;;3.00;1.20;;;;;;;16.36;69.48;99282.13;5397943;26;20004;-81
2024/04/12 07:33:59;;;;;;;5.30;1.17;;;;;;;16.26;64.54;99276.09;5408420;26;20014;-81
2024/04/12 07:36:30;;;;;;;7.05;1.90;;;;;;;15.90;61.21;99271.47;5404617;26;20008;-82
2024/04/12 07:39:07;;;;;;;4.47;1.10;;;;;;;15.85;61.21;99273.53;5406666;26;20015;-81
2024/04/12 07:41:42;;;;;;;7.50;1.38;;;;;;;15.80;61.38;99290.03;5392065;26;20011;-82
2024/04/12 07:44:12;;;;;;;2.83;1.02;;;;;;;15.88;65.29;99276.44;5387124;26;20017;-81
2024/04/12 07:46:51;;;;;;;10.00;1.38;;;;;;;16.19;66.65;99282.78;5402841;26;20011;-83
2024/04/12 07:49:20;;;;;;;4.20;1.05;;;;;;;16.09;65.18;99288.50;5395119;26;20007;-82
2024/04/12 07:51:47;;;;;;;5.07;1.50;;;;;;;16.29;64.09;99297.31;5412177;26;20009;-81
2024/04/12 07:54:15;;;;;;;7.20;1.27;;;;;;;16.34;64.95;99289.78;5425510;26;20062;-81
2024/04/12 07:57:07;;;;;;;10.40;1.60;;;;;;;16.28;61.27;99287.50;5405272;26;20010;-81
2024/04/12 07:59:37;;;;;;;9.52;1.20;;;;;;;16.16;61.13;99282.59;5401295;26;20011;-82
2024/04/12 08:02:06;;;;;;;7.82;1.35;;;;;;;16.00;60.33;99279.44;5390274;26;19999;-81
2024/04/12 08:04:38;;;;;;;3.67;1.00;;;;;;;16.09;61.31;99284.97;5389822;26;20004;-81
2024/04/12 08:07:17;;;;;;;5.53;1.30;;;;;;;16.14;60.97;99279.38;5401152;26;20001;-82
2024/04/12 08:09:46;;;;;;;5.00;1.30;;;;;;;15.95;59.00;99282.28;5400808;26;20040;-82
2024/04/12 08:12:23;;;;;;;7.97;1.20;;;;;;;16.09;61.29;99293.97;5390595;26;20012;-82
2024/04/12 08:15:06;;;;;;;9.93;1.42;;;;;;;16.26;58.58;99289.75;5404479;26;20000;-82
2024/04/12 08:17:41;;;;;;;3.63;1.13;;;;;;;16.21;59.65;99277.00;5410556;26;20003;-81
2024/04/12 08:20:16;;;;;;;8.43;1.10;;;;;;;16.53;59.11;99267.75;5404292;26;20476;-81
2024/04/12 08:22:43;;;;;;;6.82;1.50;;;;;;;16.52;58.77;99271.56;5399852;26;20004;-81
2024/04/12 08:25:17;;;;;;;7.65;0.90;;;;;;;16.89;61.31;99268.41;5409889;26;20031;-81
2024/04/12 08:27:46;;;;;;;5.35;1.20;;;;;;;17.02;58.77;99259.28;5399030;26;20057;-81
2024/04/12 08:30:19;;;;;;;4.72;1.13;;;;;;;17.01;59.52;99268.59;5396079;26;20001;-81
2024/04/12 08:32:50;;;;;;;3.75;1.35;;;;;;;16.86;58.96;99265.47;5397128;26;20004;-81
2024/04/12 08:35:21;;;;;;;7.78;1.15;;;;;;;17.06;57.77;99265.72;5408988;26;20054;-83
2024/04/12 08:37:51;;;;;;;3.00;1.13;;;;;;;17.03;59.53;99269.13;5399671;26;20016;-81
2024/04/12 08:40:24;;;;;;;4.78;1.13;;;;;;;17.00;60.33;99267.00;5395956;26;20340;-81
2024/04/12 08:43:08;;;;;;;9.13;1.33;;;;;;;17.04;60.58;99256.22;5397424;26;20018;-81
2024/04/12 08:45:43;;;;;;;5.97;1.73;;;;;;;17.02;62.99;99274.88;5396605;26;20079;-82
2024/04/12 08:48:12;;;;;;;5.00;1.40;;;;;;;16.98;63.29;99269.22;5409089;26;20004;-83
2024/04/12 08:50:40;;;;;;;5.65;1.05;;;;;;;17.10;61.62;99266.72;5403443;26;20022;-82
2024/04/12 08:53:15;;;;;;;5.30;1.15;;;;;;;17.22;60.40;99274.28;5411389;26;20010;-82
2024/04/12 08:55:44;;;;;;;5.40;1.23;;;;;;;17.34;62.96;99272.56;5404717;26;20456;-81
2024/04/12 08:58:20;;;;;;;6.78;1.40;;;;;;;17.28;61.51;99260.16;5403128;26;20007;-80
2024/04/12 09:00:53;;;;;;;8.10;1.20;;;;;;;17.33;62.70;99254.53;5404944;26;20019;-82
2024/04/12 09:03:30;;;;;;;5.28;1.10;;;;;;;17.28;63.27;99260.16;5394082;26;19995;-82
2024/04/12 09:05:57;;;;;;;4.47;1.25;;;;;;;17.35;60.73;99273.38;5398104;26;20018;-82
2024/04/12 09:08:28;;;;;;;3.88;1.23;;;;;;;17.74;61.66;99269.75;5389890;26;20011;-82
2024/04/12 09:11:01;;;;;;;4.90;1.27;;;;;;;17.84;62.13;99261.19;5402294;26;20012;-81
2024/04/12 09:13:33;;;;;;;8.60;2.15;;;;;;;17.88;62.79;99264.91;5394922;26;20036;-82
2024/04/12 09:16:06;;;;;;;6.32;1.10;;;;;;;17.68;58.99;99260.09;5406440;26;20003;-81
2024/04/12 09:18:44;;;;;;;8.00;0.98;;;;;;;17.68;58.92;99265.56;5386508;26;20009;-80
2024/04/12 09:21:24;;;;;;;5.78;1.05;;;;;;;17.84;60.94;99261.19;5395503;26;19996;-82
2024/04/12 09:23:56;;;;;;;6.88;1.40;;;;;;;17.72;59.64;99261.03;5407130;26;20004;-80
2024/04/12 09:26:25;;;;;;;3.70;0.90;;;;;;;17.59;57.79;99268.28;5396626;26;20020;-81
2024/04/12 09:29:09;;;;;;;6.15;1.13;;;;;;;17.74;58.34;99262.34;5401618;26;20009;-82
2024/04/12 09:34:35;;;;;;;7.05;1.20;;;;;;;18.34;59.37;99262.28;5386513;26;20012;-80
2024/04/12 09:37:28;;;;;;;6.32;1.00;;;;;;;18.47;56.89;99249.53;5400591;26;20018;-83
2024/04/12 09:45:21;;;;;;;2.75;0.82;;;;;;;18.82;48.04;99237.28;5390417;26;20317;-82
2024/04/12 10:38:37;;;;;;;4.30;1.40;;;;;;;22.26;44.50;99175.19;5396694;26;20024;-82
2024/04/12 10:41:16;;;;;;;4.82;1.30;;;;;;;22.04;43.91;99172.22;5436313;26;20065;-83
2024/04/12 10:43:43;;;;;;;3.80;1.15;;;;;;;22.16;44.34;99172.97;5395360;26;20018;-82
2024/04/12 10:46:12;;;;;;;3.97;1.20;;;;;;;22.21;44.07;99163.63;5407089;26;20000;-82
2024/04/12 10:48:42;;;;;;;2.67;1.20;;;;;;;21.74;44.68;99172.56;5392400;26;20010;-81
2024/04/12 10:51:09;;;;;;;3.72;1.13;;;;;;;21.73;45.70;99159.13;5389560;26;20027;-81
2024/04/12 10:53:42;;;;;;;3.22;1.25;;;;;;;22.21;46.47;99169.94;5404416;26;20000;-82
2024/04/12 10:56:18;;;;;;;7.60;1.40;;;;;;;22.62;46.64;99173.34;5392014;26;20011;-81
2024/04/12 10:58:56;;;;;;;7.53;2.05;;;;;;;21.98;44.75;99176.38;5403294;26;20054;-81
2024/04/12 11:01:26;;;;;;;3.10;1.05;;;;;;;22.54;44.64;99158.56;5395173;26;20004;-82
2024/04/12 11:03:57;;;;;;;3.88;1.27;;;;;;;21.94;46.01;99165.25;5381109;26;20468;-82
2024/04/12 11:06:31;;;;;;;5.72;1.42;;;;;;;21.37;46.59;99159.25;5403219;26;20503;-82
2024/04/12 11:09:06;;;;;;;6.32;1.40;;;;;;;22.04;47.48;99148.19;5396587;26;19996;-82
2024/04/12 11:11:43;;;;;;;4.18;1.45;;;;;;;21.55;47.75;99152.31;5401065;26;20468;-81
2024/04/12 11:14:27;;;;;;;4.63;1.60;;;;;;;21.96;46.25;99140.09;5385027;26;20004;-81
2024/04/12 11:31:14;;;;;;;7.35;1.58;;;;;;;22.35;48.01;99108.78;5410239;26;20014;-83
2024/04/12 11:33:45;;;;;;;6.00;2.03;;;;;;;22.14;45.94;99106.28;5399262;26;20034;-81
2024/04/12 11:36:20;;;;;;;5.70;1.55;;;;;;;22.69;45.80;99102.53;5394411;26;20023;-82
2024/04/12 11:38:49;;;;;;;5.32;1.63;;;;;;;22.95;44.61;99096.44;5401028;26;20035;-80
2024/04/12 11:41:23;;;;;;;7.20;1.40;;;;;;;22.97;46.40;99087.78;5408633;26;20079;-82
2024/04/12 11:43:52;;;;;;;3.80;1.55;;;;;;;22.76;44.88;99074.31;5411705;26;20403;-83
2024/04/12 11:46:23;;;;;;;3.75;1.20;;;;;;;22.73;46.40;99081.34;5402776;26;20471;-81
2024/04/12 11:48:56;;;;;;;4.53;1.50;;;;;;;22.25;45.80;99079.75;5397326;26;20004;-82
2024/04/12 11:51:24;;;;;;;3.15;1.27;;;;;;;22.60;46.71;99098.34;5399145;26;20330;-83
2024/04/12 11:53:51;;;;;;;5.70;1.15;;;;;;;22.21;45.65;99083.59;5410973;26;20007;-82
2024/04/12 11:56:21;;;;;;;7.70;1.15;;;;;;;22.48;45.92;99085.44;5396405;26;20012;-81
2024/04/12 11:58:51;;;;;;;3.72;1.45;;;;;;;22.96;46.91;99084.22;5403418;26;20008;-81
2024/04/12 12:01:18;;;;;;;9.77;1.88;;;;;;;23.53;44.91;99087.06;5405037;26;20023;-80
2024/04/12 12:03:45;;;;;;;2.63;1.33;;;;;;;23.25;43.36;99080.91;5404053;26;20011;-82
2024/04/12 12:06:13;;;;;;;2.22;0.90;;;;;;;23.66;43.09;99068.34;5399769;26;20290;-82
2024/04/12 12:08:41;;;;;;;3.92;1.00;;;;;;;23.84;43.35;99074.19;5406440;26;20338;-83
2024/04/12 12:11:10;;;;;;;5.55;1.52;;;;;;;23.98;43.43;99057.84;5396679;26;20362;-83
2024/04/12 12:13:37;;;;;;;5.05;0.98;;;;;;;24.02;42.26;99053.19;5409874;26;20008;-81
2024/04/12 12:16:06;;;;;;;3.70;1.20;;;;;;;23.80;42.50;99053.94;5391510;26;20004;-83
2024/04/12 12:18:36;;;;;;;4.65;1.00;;;;;;;23.87;42.89;99046.59;5404699;26;20001;-81
2024/04/12 12:21:03;;;;;;;2.40;0.75;;;;;;;24.47;42.52;99044.03;5409879;26;20075;-81
2024/04/12 12:23:31;;;;;;;2.22;1.10;;;;;;;24.14;42.56;99045.53;5395705;26;20018;-82
2024/04/12 12:25:58;;;;;;;3.70;1.00;;;;;;;23.89;41.31;99030.44;5396344;26;20016;-82
2024/04/12 12:28:26;;;;;;;2.67;0.80;;;;;;;24.28;41.35;99046.91;5406765;26;20300;-82
2024/04/12 12:30:57;;;;;;;3.38;0.90;;;;;;;23.93;43.19;99044.31;5401115;26;20011;-81
2024/04/12 12:33:24;;;;;;;4.90;2.00;;;;;;;24.58;41.45;99036.72;5403681;26;20015;-81
2024/04/12 12:35:54;;;;;;;2.67;0.93;;;;;;;24.18;41.41;99042.81;5399544;26;20015;-82
2024/04/12 12:38:22;;;;;;;3.05;0.90;;;;;;;24.42;42.46;99036.88;5393288;26;20778;-83
2024/04/12 12:40:49;;;;;;;6.57;1.00;;;;;;;25.34;39.70;99029.84;5434941;26;20008;-81
2024/04/12 12:43:19;;;;;;;3.80;1.10;;;;;;;24.43;40.84;99030.16;5398269;26;20003;-81
2024/04/12 12:45:49;;;;;;;3.60;1.00;;;;;;;23.97;42.41;99021.09;5411575;26;20000;-81
2024/04/12 12:48:19;;;;;;;3.30;1.00;;;;;;;23.86;44.19;99046.97;5381621;26;20011;-83
2024/04/12 12:50:47;;;;;;;3.08;1.13;;;;;;;23.80;41.43;99032.63;5408200;26;20018;-82
2024/04/12 12:53:15;;;;;;;4.47;1.10;;;;;;;23.99;42.51;99015.19;5395999;26;20365;-81
2024/04/12 12:55:42;;;;;;;3.50;0.95;;;;;;;23.55;42.04;99026.66;5405149;26;20027;-82
2024/04/12 12:58:09;;;;;;;4.40;0.90;;;;;;;24.01;41.21;99029.44;5392634;26;19996;-81
2024/04/12 13:00:44;;;;;;;3.85;0.85;;;;;;;23.60;41.75;99020.00;5394451;26;20008;-80
2024/04/12 13:03:17;;;;;;;2.80;0.90;;;;;;;23.70;42.30;99013.88;5399221;26;19999;-83
2024/04/12 13:05:48;;;;;;;1.98;0.70;;;;;;;23.67;43.06;99025.66;5392207;26;19999;-83
2024/04/12 13:08:16;;;;;;;2.63;0.80;;;;;;;23.63;42.11;99026.78;5395299;26;20047;-83
2024/04/12 13:10:48;;;;;;;2.88;0.73;;;;;;;24.00;40.35;99005.72;5436787;26;20451;-83
2024/04/12 13:13:21;;;;;;;7.28;1.02;;;;;;;24.23;40.67;99003.75;5398884;26;20027;-80